Terminal Aerodrome Forecast
Issued by NWS Cleveland, OH

Home | Current Version | Previous Version | Graphics & Text | Print | Product List | Glossary Off
Versions: 1 2 3 4 5 6 7 8 9 10 11 12 13 14 15 16 17 18 19 20 21 22 23 24 25 26 27 28 29 30

000
FTUS41 KCLE 181700
TAFCLE
TAF
KCLE 181726Z 1818/1924 02012KT P6SM BKN250
     FM190500 09006KT P6SM BKN200
     FM191400 11012G20KT P6SM BKN120
     FM191900 12015G25KT 6SM -SHRA BR BKN060 OVC100=

USA.gov is the U.S. government's official web portal to all federal, state and local government web resources and services.